createdAt,value
2022-09-03T00:02:33.661Z,1.05
2022-09-03T00:06:19.837Z,1.27
2022-09-03T00:08:28.699Z,1.52
2022-09-03T00:11:26.224Z,1.60
2022-09-03T00:13:57.646Z,1.30
2022-09-03T00:16:29.770Z,1.15
2022-09-03T00:19:01.782Z,1.70
2022-09-03T00:21:38.473Z,1.40
2022-09-03T00:24:12.811Z,1.35
2022-09-03T00:26:45.422Z,1.90
2022-09-03T00:29:20.327Z,1.30
2022-09-03T00:32:13.446Z,1.70
2022-09-03T00:34:44.695Z,1.60
2022-09-03T00:37:15.792Z,1.75
2022-09-03T00:39:43.509Z,1.38
2022-09-03T00:42:40.036Z,1.52
2022-09-03T00:45:25.492Z,1.30
2022-09-03T00:48:06.389Z,1.20
2022-09-03T00:50:35.792Z,1.35
2022-09-03T00:53:17.284Z,1.45
2022-09-03T00:55:47.542Z,1.58
2022-09-03T00:58:43.947Z,1.15
2022-09-03T01:01:20.937Z,1.45
2022-09-03T01:03:56.587Z,1.60
2022-09-03T01:06:27.560Z,1.30
2022-09-03T01:09:03.101Z,1.90
2022-09-03T01:11:54.598Z,1.25
2022-09-03T01:14:40.644Z,1.65
2022-09-03T01:17:36.969Z,1.45
2022-09-03T01:20:11.869Z,1.30
2022-09-03T01:23:03.274Z,1.33
2022-09-03T01:25:57.287Z,1.27
2022-09-03T01:28:56.603Z,1.35
2022-09-03T01:31:31.218Z,1.58
2022-09-03T01:34:36.990Z,1.40
2022-09-03T01:37:40.459Z,1.27
2022-09-03T01:40:27.837Z,1.50
2022-09-03T01:43:08.140Z,1.80
2022-09-03T01:45:43.499Z,1.45
2022-09-03T01:48:38.007Z,1.70
2022-09-03T01:51:11.080Z,1.45
2022-09-03T01:53:40.664Z,1.30
2022-09-03T01:56:33.459Z,2.00
2022-09-03T01:59:06.291Z,1.30
2022-09-03T02:01:48.036Z,1.50
2022-09-03T02:04:20.480Z,1.48
2022-09-03T02:06:48.903Z,1.30
2022-09-03T02:09:16.799Z,1.60
2022-09-03T02:11:50.062Z,1.58
2022-09-03T02:14:17.780Z,1.95
2022-09-03T02:16:44.909Z,1.60
2022-09-03T02:19:16.094Z,1.45
2022-09-03T02:21:50.397Z,1.40
2022-09-03T02:24:17.159Z,1.45
2022-09-03T02:26:44.083Z,1.55
2022-09-03T02:29:11.333Z,1.63
2022-09-03T02:31:37.904Z,1.70
2022-09-03T02:34:04.431Z,1.65
2022-09-03T02:36:35.282Z,1.92
2022-09-03T02:39:01.939Z,1.63
2022-09-03T02:41:28.601Z,1.60
2022-09-03T02:44:02.577Z,1.55
2022-09-03T02:46:36.142Z,1.23
2022-09-03T02:49:02.821Z,1.30
2022-09-03T02:51:42.632Z,1.50
2022-09-03T02:54:10.772Z,1.30
2022-09-03T02:56:37.855Z,1.80
2022-09-03T02:59:06.534Z,1.65
2022-09-03T03:01:33.647Z,1.67
2022-09-03T03:04:00.408Z,1.65
2022-09-03T03:06:27.270Z,1.75
2022-09-03T03:08:56.121Z,1.60
2022-09-03T03:11:25.748Z,1.77
2022-09-03T03:13:52.689Z,1.70
2022-09-03T03:16:19.335Z,2.08
2022-09-03T03:18:48.851Z,2.00
2022-09-03T03:21:17.983Z,1.48
2022-09-03T03:23:45.269Z,1.60
2022-09-03T03:26:14.807Z,1.80
2022-09-03T03:28:44.452Z,1.77
2022-09-03T03:31:19.669Z,1.95
2022-09-03T03:33:53.895Z,1.67
2022-09-03T03:36:21.425Z,1.50
2022-09-03T03:38:48.767Z,1.60
2022-09-03T03:41:19.112Z,1.52
2022-09-03T03:43:46.039Z,1.90
2022-09-03T03:46:12.772Z,1.50
2022-09-03T03:48:39.347Z,1.98
2022-09-03T03:51:08.051Z,2.00
2022-09-03T03:53:36.395Z,1.73
2022-09-03T03:56:05.458Z,1.42
2022-09-03T03:58:33.043Z,1.67
2022-09-03T04:01:10.219Z,1.85
2022-09-03T04:03:37.655Z,1.70
2022-09-03T04:06:04.997Z,2.40
2022-09-03T04:08:38.135Z,1.63
2022-09-03T04:11:07.187Z,1.33
2022-09-03T04:13:35.309Z,2.08
2022-09-03T04:16:10.018Z,1.98
2022-09-03T04:18:37.376Z,1.80
2022-09-03T04:21:15.762Z,1.70
2022-09-03T04:23:44.733Z,1.77
2022-09-03T04:26:14.785Z,1.95
2022-09-03T04:28:42.059Z,2.20
2022-09-03T04:31:10.778Z,2.20
2022-09-03T04:33:39.152Z,1.77
2022-09-03T04:36:08.268Z,1.80
2022-09-03T04:38:37.009Z,1.80
2022-09-03T04:41:04.625Z,1.70
2022-09-03T04:43:31.897Z,1.70
2022-09-03T04:46:03.232Z,2.17
2022-09-03T04:48:31.480Z,2.00
2022-09-03T04:51:07.080Z,2.13
2022-09-03T04:53:38.984Z,1.75
2022-09-03T04:56:18.437Z,2.15
2022-09-03T04:58:45.962Z,1.60
2022-09-03T05:01:18.874Z,1.85
2022-09-03T05:03:46.296Z,1.95
2022-09-03T05:06:14.618Z,1.75
2022-09-03T05:08:41.068Z,1.95
2022-09-03T05:11:07.901Z,1.80
2022-09-03T05:13:36.550Z,1.65
2022-09-03T05:16:13.032Z,1.98
2022-09-03T05:18:39.883Z,1.52
2022-09-03T05:21:11.107Z,2.00
2022-09-03T05:23:42.556Z,2.30
2022-09-03T05:26:11.996Z,1.88
2022-09-03T05:28:40.405Z,1.85
2022-09-03T05:31:18.322Z,1.80
2022-09-03T05:33:47.483Z,1.65
2022-09-03T05:36:17.002Z,1.90
2022-09-03T05:38:43.778Z,1.95
2022-09-03T05:41:12.258Z,1.83
2022-09-03T05:43:39.508Z,2.55
2022-09-03T05:46:15.393Z,1.77
2022-09-03T05:48:43.622Z,2.35
2022-09-03T05:51:11.163Z,1.95
2022-09-03T05:53:40.042Z,1.90
2022-09-03T05:56:12.186Z,1.75
2022-09-03T05:58:45.013Z,2.00
2022-09-03T06:01:20.309Z,1.75
2022-09-03T06:03:52.941Z,1.92
2022-09-03T06:06:25.438Z,1.90
2022-09-03T06:08:55.829Z,1.70
2022-09-03T06:11:23.476Z,1.85
2022-09-03T06:13:49.904Z,2.03
2022-09-03T06:16:16.431Z,1.85
2022-09-03T06:18:42.933Z,1.60
2022-09-03T06:21:09.434Z,1.75
2022-09-03T06:23:36.298Z,1.75
2022-09-03T06:26:10.544Z,1.92
2022-09-03T06:28:41.152Z,1.85
2022-09-03T06:33:37.377Z,1.50
2022-09-03T06:36:09.018Z,1.90
2022-09-03T06:38:37.623Z,1.65
2022-09-03T06:41:07.323Z,1.35
2022-09-03T06:43:36.400Z,1.40
2022-09-03T06:46:11.601Z,1.45
2022-09-03T06:48:39.932Z,1.52
2022-09-03T06:51:08.377Z,1.40
2022-09-03T06:53:40.208Z,1.50
2022-09-03T06:56:09.121Z,1.73
2022-09-03T06:58:41.939Z,1.70
2022-09-03T07:01:17.350Z,1.67
2022-09-03T07:03:45.203Z,1.40
2022-09-03T07:06:17.512Z,1.70
2022-09-03T07:08:44.839Z,1.70
2022-09-03T07:11:14.306Z,1.88
2022-09-03T07:13:51.735Z,1.60
2022-09-03T07:16:23.796Z,1.40
2022-09-03T07:18:50.723Z,1.20
2022-09-03T07:21:23.455Z,1.63
2022-09-03T07:23:51.900Z,1.55
2022-09-03T07:26:21.033Z,1.70
2022-09-03T07:28:50.206Z,1.60
2022-09-03T07:31:20.255Z,1.50
2022-09-03T07:33:47.416Z,1.65
2022-09-03T07:36:16.204Z,1.38
2022-09-03T07:38:44.840Z,1.20
2022-09-03T07:41:18.865Z,1.50
2022-09-03T07:43:55.755Z,1.23
2022-09-03T07:46:24.444Z,1.23
2022-09-03T07:48:55.286Z,1.40
2022-09-03T07:51:28.302Z,1.30
2022-09-03T07:53:57.837Z,1.50
2022-09-03T07:56:25.492Z,1.70
2022-09-03T07:58:52.015Z,1.17
2022-09-03T08:01:20.866Z,1.85
2022-09-03T08:03:49.680Z,2.17
2022-09-03T08:06:18.190Z,2.15
2022-09-03T08:08:47.955Z,1.30
2022-09-03T08:11:17.337Z,1.33
2022-09-03T08:13:46.623Z,1.43
2022-09-03T08:16:15.425Z,1.50
2022-09-03T08:18:42.364Z,1.30
2022-09-03T08:21:15.820Z,1.33
2022-09-03T08:23:45.630Z,1.60
2022-09-03T08:26:13.668Z,1.60
2022-09-03T08:28:41.164Z,1.83
2022-09-03T08:31:19.858Z,1.30
2022-09-03T08:33:51.364Z,1.50
2022-09-03T08:36:22.360Z,1.15
2022-09-03T08:38:55.035Z,1.30
2022-09-03T08:41:40.233Z,1.58
2022-09-03T08:44:40.493Z,1.25
2022-09-03T08:49:52.193Z,1.90
2022-09-03T08:52:21.718Z,1.33
2022-09-03T08:54:49.426Z,1.40
2022-09-03T08:57:19.211Z,1.33
2022-09-03T08:59:45.672Z,1.50
2022-09-03T09:02:22.633Z,1.20
2022-09-03T09:05:06.253Z,1.27
2022-09-03T09:07:42.828Z,1.60
2022-09-03T09:10:45.440Z,1.40
2022-09-03T09:13:33.686Z,1.48
2022-09-03T09:16:00.717Z,1.60
2022-09-03T09:19:05.768Z,1.52
2022-09-03T09:21:46.212Z,2.10
2022-09-03T09:24:23.509Z,1.20
2022-09-03T09:26:58.009Z,1.30
2022-09-03T09:29:30.938Z,1.30
2022-09-03T09:31:57.774Z,1.58
2022-09-03T09:34:27.742Z,1.50
2022-09-03T09:36:56.044Z,1.40
2022-09-03T09:39:23.360Z,1.88
2022-09-03T09:42:09.388Z,1.27
2022-09-03T09:44:37.698Z,1.40
2022-09-03T09:47:16.177Z,1.40
2022-09-03T09:49:46.014Z,1.10
2022-09-03T09:52:15.355Z,1.50
2022-09-03T09:54:45.787Z,1.30
2022-09-03T09:57:18.873Z,1.00
2022-09-03T09:59:49.620Z,1.42
2022-09-03T10:02:28.601Z,1.10
2022-09-03T10:05:13.574Z,1.10
2022-09-03T10:07:40.222Z,1.63
2022-09-03T10:10:15.948Z,1.63
2022-09-03T10:12:58.329Z,1.20
2022-09-03T10:18:14.447Z,1.13
2022-09-03T10:20:48.260Z,1.15
2022-09-03T10:23:28.282Z,1.50
2022-09-03T10:26:09.764Z,1.42
2022-09-03T10:28:42.654Z,1.73
2022-09-03T10:31:31.627Z,1.45
2022-09-03T10:34:35.160Z,1.50
2022-09-03T10:37:06.344Z,1.35
2022-09-03T10:39:47.684Z,1.08
2022-09-03T10:42:38.239Z,1.52
2022-09-03T10:45:28.983Z,1.35
2022-09-03T10:48:16.579Z,1.80
2022-09-03T10:51:04.155Z,1.35
2022-09-03T10:53:51.898Z,1.40
2022-09-03T10:56:31.181Z,1.10
2022-09-03T10:59:16.019Z,1.70
2022-09-03T11:02:01.780Z,1.45
2022-09-03T11:04:37.858Z,1.30
2022-09-03T11:07:09.039Z,1.20
2022-09-03T11:09:49.606Z,1.27
2022-09-03T11:12:35.259Z,1.33
2022-09-03T11:15:10.153Z,1.15
2022-09-03T11:17:49.055Z,1.58
2022-09-03T11:20:24.132Z,1.27
2022-09-03T11:22:54.790Z,1.42
2022-09-03T11:25:26.042Z,1.58
2022-09-03T11:28:28.397Z,1.17
2022-09-03T11:31:04.017Z,1.42
2022-09-03T11:33:34.351Z,1.52
2022-09-03T11:36:02.151Z,1.38
2022-09-03T11:38:31.966Z,1.50
2022-09-03T11:41:00.358Z,1.60
2022-09-03T11:43:29.840Z,1.55
2022-09-03T11:46:25.373Z,1.13
2022-09-03T11:49:13.653Z,1.40
2022-09-03T11:51:43.996Z,1.20
2022-09-03T11:54:13.170Z,1.40
2022-09-03T11:56:42.168Z,1.90
2022-09-03T11:59:14.867Z,1.75
2022-09-03T12:01:58.974Z,1.75
2022-09-03T12:04:44.817Z,1.65
2022-09-03T12:07:38.157Z,2.15
2022-09-03T12:10:41.886Z,1.60
2022-09-03T12:13:17.110Z,1.67
2022-09-03T12:16:14.749Z,2.08
2022-09-03T12:18:42.491Z,1.80
2022-09-03T12:21:10.564Z,1.80
2022-09-03T12:23:39.992Z,1.73
2022-09-03T12:26:14.742Z,1.80
2022-09-03T12:28:44.069Z,1.75
2022-09-03T12:31:22.741Z,2.17
2022-09-03T12:34:00.998Z,1.90
2022-09-03T12:36:39.315Z,1.95
2022-09-03T12:39:17.085Z,2.10
2022-09-03T12:42:14.386Z,2.10
2022-09-03T12:44:42.571Z,2.20
2022-09-03T12:50:08.406Z,1.75
2022-09-03T12:52:59.502Z,2.13
2022-09-03T12:55:30.972Z,2.13
2022-09-03T12:58:25.875Z,2.17
2022-09-03T13:01:09.964Z,2.40
2022-09-03T13:04:36.415Z,2.10
2022-09-03T13:07:22.258Z,2.05
2022-09-03T13:09:49.633Z,2.42
2022-09-03T13:12:41.746Z,2.30
2022-09-03T13:15:12.376Z,2.03
2022-09-03T13:17:50.623Z,3.00
2022-09-03T13:21:01.458Z,2.10
2022-09-03T13:23:54.448Z,2.45
2022-09-03T13:26:32.968Z,2.28
2022-09-03T13:29:40.066Z,2.58
2022-09-03T13:32:33.515Z,2.22
2022-09-03T13:35:10.703Z,2.38
2022-09-03T13:38:01.861Z,1.92
2022-09-03T13:41:10.728Z,2.33
2022-09-03T13:44:05.090Z,2.20
2022-09-03T13:46:41.932Z,2.22
2022-09-03T13:49:40.623Z,2.17
2022-09-03T13:52:19.507Z,2.55
2022-09-03T13:54:56.379Z,2.40
2022-09-03T13:57:25.839Z,2.42
2022-09-03T13:59:54.918Z,2.50
2022-09-03T14:02:44.837Z,2.47
2022-09-03T14:10:57.674Z,2.08
2022-09-03T14:13:48.529Z,2.08
2022-09-03T14:16:34.624Z,2.58
2022-09-03T14:19:12.857Z,2.28
2022-09-03T14:21:50.049Z,2.08
2022-09-03T14:27:34.955Z,2.45
2022-09-03T14:30:09.611Z,2.25
2022-09-03T14:32:48.159Z,2.25
2022-09-03T14:35:35.989Z,2.10
2022-09-03T14:38:30.089Z,2.55
2022-09-03T14:41:27.373Z,2.08
2022-09-03T14:44:09.062Z,2.75
2022-09-03T14:46:48.122Z,1.83
2022-09-03T14:50:02.043Z,2.40
2022-09-03T14:53:03.100Z,2.42
2022-09-03T14:55:29.510Z,2.45
2022-09-03T14:57:55.902Z,2.40
2022-09-03T15:00:33.397Z,2.47
2022-09-03T15:03:15.834Z,2.30
2022-09-03T15:06:02.706Z,2.60
2022-09-03T15:08:57.431Z,2.40
2022-09-03T15:11:31.807Z,2.42
2022-09-03T15:14:15.785Z,2.70
2022-09-03T15:17:02.525Z,2.05
2022-09-03T15:19:54.107Z,2.38
2022-09-03T15:22:39.337Z,2.40
2022-09-03T15:25:24.046Z,2.58
2022-09-03T15:28:04.589Z,2.45
2022-09-03T15:30:49.375Z,2.42
2022-09-03T15:33:29.505Z,2.75
2022-09-03T15:36:28.576Z,2.88
2022-09-03T15:39:46.510Z,2.60
2022-09-03T15:42:26.300Z,2.75
2022-09-03T15:44:56.463Z,2.80
2022-09-03T15:47:57.252Z,2.53
2022-09-03T15:50:50.049Z,2.80
2022-09-03T15:53:41.958Z,2.72
2022-09-03T15:56:18.793Z,2.33
2022-09-03T15:59:02.232Z,3.00
2022-09-03T16:01:42.698Z,2.65
2022-09-03T16:04:28.988Z,2.33
2022-09-03T16:07:07.442Z,2.80
2022-09-03T16:09:45.534Z,2.67
2022-09-03T16:12:53.583Z,2.42
2022-09-03T16:15:25.835Z,2.33
2022-09-03T16:17:52.416Z,2.65
2022-09-03T16:20:47.519Z,2.00
2022-09-03T16:23:25.265Z,1.55
2022-09-03T16:25:59.753Z,1.95
2022-09-03T16:28:41.506Z,1.65
2022-09-03T16:31:14.261Z,2.22
2022-09-03T16:33:46.039Z,1.85
2022-09-03T16:36:37.518Z,2.72
2022-09-03T16:39:24.198Z,2.50
2022-09-03T16:42:34.860Z,2.45
2022-09-03T16:45:30.328Z,3.65
2022-09-03T16:48:18.641Z,2.50
2022-09-03T16:51:10.581Z,3.00
2022-09-03T16:54:06.060Z,2.10
2022-09-03T16:56:38.631Z,2.10
2022-09-03T16:59:25.953Z,2.17
2022-09-03T17:02:40.084Z,2.22
2022-09-03T17:05:37.377Z,2.60
2022-09-03T17:08:22.483Z,2.40
2022-09-03T17:11:13.466Z,2.85
2022-09-03T17:13:52.050Z,3.25
2022-09-03T17:16:32.363Z,3.15
2022-09-03T17:19:23.204Z,3.50
2022-09-03T17:22:06.278Z,2.78
2022-09-03T17:24:53.821Z,2.55
2022-09-03T17:27:26.680Z,2.25
2022-09-03T17:30:16.033Z,1.95
2022-09-03T17:33:05.393Z,2.63
2022-09-03T17:35:44.200Z,2.33
2022-09-03T17:38:10.679Z,2.35
2022-09-03T17:40:52.683Z,2.42
2022-09-03T17:43:33.122Z,2.47
2022-09-03T17:46:26.223Z,2.45
2022-09-03T17:48:59.774Z,2.30
2022-09-03T17:51:43.632Z,2.38
2022-09-03T17:54:39.013Z,2.55
2022-09-03T17:57:35.769Z,3.15
2022-09-03T18:00:07.355Z,3.20
2022-09-03T18:02:36.926Z,2.95
2022-09-03T18:05:16.947Z,2.92
2022-09-03T18:07:56.926Z,4.72
2022-09-03T18:10:32.887Z,5.30
2022-09-03T18:13:14.993Z,2.80
2022-09-03T18:15:58.529Z,2.70
2022-09-03T18:18:28.945Z,2.42
2022-09-03T18:21:25.406Z,2.97
2022-09-03T18:24:39.447Z,4.13
2022-09-03T18:27:39.068Z,3.65
2022-09-03T18:30:30.094Z,3.42
2022-09-03T18:33:15.769Z,4.00
2022-09-03T18:36:05.108Z,4.10
2022-09-03T18:38:55.548Z,3.90
2022-09-03T18:41:58.802Z,2.80
2022-09-03T18:45:21.887Z,3.33
2022-09-03T18:48:31.627Z,2.97
2022-09-03T18:51:51.193Z,3.10
2022-09-03T18:55:06.613Z,3.67
2022-09-03T18:58:07.408Z,4.93
2022-09-03T19:01:01.165Z,3.67
2022-09-03T19:04:21.726Z,4.50
2022-09-03T19:07:17.765Z,3.15
2022-09-03T19:10:21.538Z,2.80
2022-09-03T19:13:20.438Z,3.40
2022-09-03T19:16:20.886Z,3.00
2022-09-03T19:19:24.820Z,3.53
2022-09-03T19:22:17.822Z,3.83
2022-09-03T19:25:04.572Z,2.80
2022-09-03T19:28:03.963Z,3.10
2022-09-03T19:31:08.423Z,2.88
2022-09-03T19:34:30.405Z,2.95
2022-09-03T19:37:33.671Z,3.35
2022-09-03T19:40:45.131Z,2.55
2022-09-03T19:43:48.013Z,2.95
2022-09-03T19:46:55.498Z,2.42
2022-09-03T19:50:19.706Z,3.55
2022-09-03T19:53:24.026Z,2.65
2022-09-03T19:56:14.648Z,2.20
2022-09-03T19:59:08.512Z,2.17
2022-09-03T20:01:56.298Z,2.60
2022-09-03T20:05:00.146Z,2.38
2022-09-03T20:07:45.713Z,2.83
2022-09-03T20:10:23.821Z,2.38
2022-09-03T20:13:14.881Z,3.05
2022-09-03T20:16:07.550Z,3.13
2022-09-03T20:18:43.921Z,3.20
2022-09-03T20:21:13.419Z,2.70
2022-09-03T20:23:46.164Z,3.03
2022-09-03T20:26:34.966Z,2.47
2022-09-03T20:29:25.500Z,2.75
2022-09-03T20:32:08.989Z,4.00
2022-09-03T20:34:55.985Z,3.50
2022-09-03T20:37:42.338Z,5.05
2022-09-03T20:40:35.040Z,4.13
2022-09-03T20:43:14.806Z,3.47
2022-09-03T20:46:18.544Z,3.80
2022-09-03T20:49:00.024Z,3.47
2022-09-03T20:51:36.777Z,2.92
2022-09-03T20:54:11.885Z,2.45
2022-09-03T20:56:57.716Z,3.00
2022-09-03T20:59:48.254Z,2.63
2022-09-03T21:02:48.470Z,3.00
2022-09-03T21:07:56.542Z,3.60
2022-09-03T21:10:37.845Z,3.17
2022-09-03T21:13:25.722Z,3.50
2022-09-03T21:16:17.618Z,3.78
2022-09-03T21:19:06.882Z,3.08
2022-09-03T21:21:59.900Z,3.38
2022-09-03T21:24:35.499Z,3.22
2022-09-03T21:27:07.257Z,3.47
2022-09-03T21:30:05.636Z,3.40
2022-09-03T21:32:45.750Z,3.20
2022-09-03T21:35:25.307Z,3.40
2022-09-03T21:38:31.201Z,4.55
2022-09-03T21:41:03.131Z,4.93
2022-09-03T21:43:38.292Z,4.00
2022-09-03T21:46:09.608Z,3.70
2022-09-03T21:49:10.957Z,4.18
2022-09-03T21:51:52.013Z,3.70
2022-09-03T21:54:29.402Z,3.88
2022-09-03T21:57:18.823Z,3.67
2022-09-03T22:00:17.731Z,3.67
2022-09-03T22:02:45.401Z,3.92
2022-09-03T22:05:13.105Z,4.30
2022-09-03T22:08:12.166Z,3.78
2022-09-03T22:10:52.496Z,4.00
2022-09-03T22:16:38.400Z,4.13
2022-09-03T22:19:09.181Z,3.67
2022-09-03T22:21:59.333Z,4.53
2022-09-03T22:24:29.969Z,3.92
2022-09-03T22:27:09.900Z,4.78
2022-09-03T22:29:58.290Z,3.75
2022-09-03T22:33:06.392Z,4.10
2022-09-03T22:35:59.195Z,4.43
2022-09-03T22:38:34.740Z,4.65
2022-09-03T22:41:30.384Z,3.95
2022-09-03T22:44:08.072Z,4.30
2022-09-03T22:46:57.597Z,4.10
2022-09-03T22:49:51.406Z,4.37
2022-09-03T22:52:49.378Z,4.75
2022-09-03T22:55:26.051Z,4.28
2022-09-03T22:58:16.227Z,4.40
2022-09-03T23:00:48.893Z,4.38
2022-09-03T23:03:27.348Z,4.25
2022-09-03T23:06:02.225Z,4.78
2022-09-03T23:08:45.653Z,4.20
2022-09-03T23:11:30.856Z,4.15
2022-09-03T23:14:06.220Z,4.03
2022-09-03T23:16:53.746Z,4.57
2022-09-03T23:19:52.783Z,4.53
2022-09-03T23:22:27.294Z,4.57
2022-09-03T23:24:58.742Z,4.55
2022-09-03T23:27:58.564Z,4.32
2022-09-03T23:30:27.868Z,4.53
2022-09-03T23:32:58.823Z,4.43
2022-09-03T23:35:36.537Z,4.45
2022-09-03T23:38:36.924Z,5.10
2022-09-03T23:41:07.770Z,4.45
2022-09-03T23:44:00.548Z,5.68
2022-09-03T23:46:38.677Z,5.30
2022-09-03T23:49:23.616Z,4.82
2022-09-03T23:52:22.593Z,4.60
2022-09-03T23:55:48.931Z,5.18
2022-09-03T23:58:33.323Z,4.53
